Archival Weather

Heathrow

London, United Kingdom (EGLL)

Report from: Sunday, March 19, 2023 8:50 PM GMT
Current time: Tuesday, July 16, 2024 9:19 AM BST

Current weather – Weather history – Daily summaries
Weather forecast

Temperature9.0°C (48.2°F)
Wind chill7.3°C (45.1°F)
Dew point4.0°C (39.2°F)
Winds 6 kts (3.1 m/s, 6.9 mph) Vrb
Winds variableWinds variable from South (170°) to West (270°)
Visibility6.2 mi. (10 km)
Clouds Sky clear
Altimeter30.06 in.Hg (1018 mB)
Relative humidity71 %
Density altitude-760 ft. (-232 m)
Remarks Fully automated report
No clouds detected
Flight conditions Visual Meteorological Conditions
Raw dataEGLL 192050Z AUTO 22006KT 170V270 9999 NCD 09/04 Q1018
An error has occurred. This application may no longer respond until reloaded. Reload 🗙